This is the latest recevied weather packets stored in our database for station/object WP3OF-2. If no packets are shown the sender has not sent any weather packets the latest 10 day(s).
| Time | Temp. | Humidity | Pressure | Rain* | Wind** | Luminosity | Snow |
|---|---|---|---|---|---|---|---|
| 1777483295 | 23.33° C | 91% | 1024.1 hPa | 0 mm | - | 415 W/m² | - |
| 1777482991 | 23.33° C | 92% | 1024.5 hPa | 0 mm | - | 444 W/m² | - |
| 1777482687 | 23.33° C | 91% | 1024.1 hPa | 0 mm | - | 440 W/m² | - |
| 1777482384 | 23.33° C | 89% | 1024.5 hPa | 0 mm | - | 411 W/m² | - |
| 1777482082 | 23.89° C | 87% | 1024.5 hPa | 0 mm | - | 444 W/m² | - |
| 1777481780 | 23.33° C | 87% | 1024.5 hPa | 0 mm | - | 466 W/m² | - |
| 1777481477 | 23.33° C | 86% | 1024.5 hPa | 0 mm | - | 649 W/m² | - |
| 1777481173 | 23.33° C | 86% | 1024.5 hPa | 0 mm | - | 495 W/m² | - |
| 1777480870 | 23.89° C | 85% | 1024.9 hPa | 0 mm | - | 444 W/m² | - |
| 1777480566 | 23.89° C | 86% | 1024.9 hPa | 0 mm | - | 495 W/m² | - |
| 1777480263 | 24.44° C | 82% | 1024.9 hPa | 0 mm | - | 566 W/m² | - |
| 1777479959 | 23.89° C | 82% | 1024.9 hPa | 0 mm | - | 616 W/m² | - |
| 1777479655 | 23.33° C | 88% | 1024.9 hPa | 0 mm | - | 560 W/m² | - |
| 1777479354 | 22.78° C | 89% | 1024.9 hPa | 0 mm | - | 445 W/m² | - |
| 1777479050 | 22.78° C | 87% | 1024.9 hPa | 0 mm | - | 544 W/m² | - |
| 1777478747 | 23.33° C | 87% | 1024.9 hPa | 0 mm | - | 680 W/m² | - |
| 1777478443 | 23.33° C | 87% | 1024.9 hPa | 0 mm | - | 886 W/m² | - |
| 1777478140 | 22.78° C | 89% | 1024.9 hPa | 0 mm | - | 623 W/m² | - |
| 1777477836 | 23.33° C | 88% | 1025.2 hPa | 0 mm | - | 776 W/m² | - |
| 1777477532 | 22.22° C | 91% | 1024.9 hPa | 0 mm | - | 479 W/m² | - |
| 1777477229 | 22.78° C | 91% | 1024.9 hPa | 0 mm | - | 331 W/m² | - |
| 1777476925 | 22.22° C | 92% | 1024.9 hPa | 0 mm | - | 555 W/m² | - |
| 1777476623 | 21.67° C | 92% | 1025.2 hPa | 0 mm | - | 280 W/m² | - |
| 1777476320 | 22.22° C | 92% | 1025.2 hPa | 0 mm | - | 417 W/m² | - |
| 1777476015 | 22.22° C | 92% | 1025.2 hPa | 0 mm | - | 425 W/m² | - |
* Rain latest hour (hover to see other rain measurements)
** Current wind speed in m/s (hover to see current wind gust speed)